createdAt,value
2023-02-22T00:01:19.213Z,49.36
2023-02-22T00:04:04.225Z,50.26
2023-02-22T00:06:47.496Z,50.66
2023-02-22T00:09:30.525Z,50.52
2023-02-22T00:12:13.605Z,51.47
2023-02-22T00:14:58.283Z,51.59
2023-02-22T00:17:41.673Z,51.40
2023-02-22T00:20:25.207Z,51.71
2023-02-22T00:23:10.752Z,51.59
2023-02-22T00:25:54.345Z,51.94
2023-02-22T00:28:38.119Z,51.60
2023-02-22T00:31:23.722Z,51.63
2023-02-22T00:34:06.799Z,52.03
2023-02-22T00:36:50.724Z,52.06
2023-02-22T00:39:34.139Z,52.08
2023-02-22T00:42:18.155Z,51.80
2023-02-22T00:45:01.190Z,51.93
2023-02-22T00:47:46.681Z,51.84
2023-02-22T00:50:31.684Z,52.13
2023-02-22T00:53:14.914Z,51.35
2023-02-22T00:55:58.001Z,51.54
2023-02-22T00:58:41.065Z,51.43
2023-02-22T01:01:24.911Z,51.33
2023-02-22T01:04:09.641Z,51.21
2023-02-22T01:06:54.146Z,51.52
2023-02-22T01:09:39.700Z,50.90
2023-02-22T01:12:23.033Z,50.68
2023-02-22T01:15:10.480Z,51.30
2023-02-22T01:17:54.464Z,50.41
2023-02-22T01:20:39.567Z,50.28
2023-02-22T01:23:22.632Z,50.34
2023-02-22T01:26:06.156Z,50.67
2023-02-22T01:28:49.220Z,50.99
2023-02-22T01:31:32.410Z,50.92
2023-02-22T01:34:17.967Z,50.56
2023-02-22T01:37:03.017Z,50.71
2023-02-22T01:39:47.468Z,50.07
2023-02-22T01:42:30.630Z,50.88
2023-02-22T01:45:45.423Z,50.48
2023-02-22T01:48:36.594Z,50.56
2023-02-22T01:51:22.430Z,51.23
2023-02-22T01:54:11.305Z,50.60
2023-02-22T01:57:01.511Z,51.34
2023-02-22T01:59:49.380Z,51.05
2023-02-22T02:02:32.507Z,51.89
2023-02-22T02:05:15.987Z,50.96
2023-02-22T02:07:59.626Z,51.73
2023-02-22T02:10:45.756Z,52.05
2023-02-22T02:13:29.965Z,50.97
2023-02-22T02:16:13.170Z,51.48
2023-02-22T02:18:56.496Z,51.27
2023-02-22T02:22:02.661Z,51.87
2023-02-22T02:25:18.390Z,52.05
2023-02-22T02:28:23.522Z,52.24
2023-02-22T02:31:26.146Z,51.72
2023-02-22T02:34:20.464Z,51.90
2023-02-22T02:37:12.333Z,52.47
2023-02-22T02:40:01.695Z,52.78
2023-02-22T02:42:55.876Z,52.22
2023-02-22T02:45:47.298Z,52.31
2023-02-22T02:48:33.759Z,52.44
2023-02-22T02:51:19.405Z,52.96
2023-02-22T02:54:05.076Z,52.42
2023-02-22T02:56:48.763Z,53.30
2023-02-22T02:59:34.361Z,54.77
2023-02-22T03:02:37.962Z,54.54
2023-02-22T03:05:38.243Z,55.26
2023-02-22T03:08:32.611Z,55.13
2023-02-22T03:11:19.551Z,55.61
2023-02-22T03:14:13.579Z,55.90
2023-02-22T03:17:05.392Z,55.07
2023-02-22T03:19:54.797Z,54.70
2023-02-22T03:22:48.235Z,54.96
2023-02-22T03:25:37.548Z,53.53
2023-02-22T03:28:26.433Z,54.20
2023-02-22T03:31:19.617Z,54.42
2023-02-22T03:34:07.302Z,54.14
2023-02-22T03:36:57.921Z,54.67
2023-02-22T03:39:43.000Z,54.05
2023-02-22T03:42:31.882Z,54.32
2023-02-22T03:45:17.142Z,54.60
2023-02-22T03:48:06.440Z,53.95
2023-02-22T03:50:51.255Z,54.36
2023-02-22T03:53:37.256Z,54.64
2023-02-22T03:56:27.118Z,54.17
2023-02-22T03:59:12.506Z,53.69
2023-02-22T04:01:56.999Z,53.27
2023-02-22T04:04:40.283Z,53.16
2023-02-22T04:07:23.343Z,53.36
2023-02-22T04:10:09.610Z,53.42
2023-02-22T04:12:53.326Z,52.50
2023-02-22T04:15:37.873Z,52.87
2023-02-22T04:18:21.122Z,53.27
2023-02-22T04:21:04.755Z,53.77
2023-02-22T04:23:47.828Z,53.48
2023-02-22T04:26:30.966Z,53.80
2023-02-22T04:29:13.988Z,53.58
2023-02-22T04:31:59.924Z,54.33
2023-02-22T04:34:42.950Z,54.35
2023-02-22T04:37:26.655Z,55.34
2023-02-22T04:40:11.627Z,54.82
2023-02-22T04:42:54.739Z,55.27
2023-02-22T04:45:38.087Z,56.75
2023-02-22T04:48:22.526Z,56.29
2023-02-22T04:51:06.461Z,55.78
2023-02-22T04:53:49.649Z,56.23
2023-02-22T04:56:32.759Z,57.39
2023-02-22T04:59:15.993Z,57.50
2023-02-22T05:01:59.153Z,58.26
2023-02-22T05:04:43.798Z,58.24
2023-02-22T05:07:27.010Z,58.35
2023-02-22T05:10:10.752Z,58.07
2023-02-22T05:12:53.931Z,58.89
2023-02-22T05:15:37.427Z,59.30
2023-02-22T05:18:21.198Z,59.48
2023-02-22T05:21:07.159Z,60.11
2023-02-22T05:23:50.772Z,59.63
2023-02-22T05:26:33.901Z,59.69
2023-02-22T05:29:16.962Z,59.83
2023-02-22T05:32:00.267Z,59.88
2023-02-22T05:34:43.785Z,61.05
2023-02-22T05:37:28.402Z,60.33
2023-02-22T05:40:14.512Z,59.56
2023-02-22T05:42:58.706Z,59.87
2023-02-22T05:45:42.333Z,59.59
2023-02-22T05:48:25.680Z,58.93
2023-02-22T05:51:09.732Z,59.98
2023-02-22T05:53:54.281Z,60.19
2023-02-22T05:56:37.619Z,60.39
2023-02-22T05:59:20.954Z,59.04
2023-02-22T06:02:04.145Z,59.86
2023-02-22T06:04:48.748Z,58.21
2023-02-22T06:07:31.886Z,58.91
2023-02-22T06:10:16.678Z,57.46
2023-02-22T06:13:01.745Z,55.51
2023-02-22T06:15:44.745Z,56.09
2023-02-22T06:18:30.537Z,55.66
2023-02-22T06:21:13.696Z,55.92
2023-02-22T06:23:56.751Z,55.15
2023-02-22T06:26:42.108Z,55.39
2023-02-22T06:29:25.446Z,49.73
2023-02-22T06:32:08.820Z,43.52
2023-02-22T06:34:51.991Z,40.47
2023-02-22T06:37:35.524Z,37.63
2023-02-22T06:40:18.933Z,35.75
2023-02-22T06:43:03.600Z,33.36
2023-02-22T06:45:46.867Z,29.40
2023-02-22T06:48:31.516Z,25.72
2023-02-22T06:51:14.895Z,23.01
2023-02-22T06:53:58.160Z,20.19
2023-02-22T06:56:42.030Z,18.07
2023-02-22T06:59:28.154Z,18.75
2023-02-22T07:02:12.738Z,17.71
2023-02-22T07:04:58.230Z,15.92
2023-02-22T07:07:41.399Z,15.41
2023-02-22T07:10:41.159Z,13.93
2023-02-22T07:13:24.369Z,13.21
2023-02-22T07:16:08.941Z,12.78
2023-02-22T07:18:52.384Z,12.65
2023-02-22T07:21:35.516Z,13.34
2023-02-22T07:24:18.829Z,13.04
2023-02-22T07:27:02.469Z,13.85
2023-02-22T07:29:46.881Z,14.13
2023-02-22T07:32:31.624Z,12.69
2023-02-22T07:35:19.266Z,12.97
2023-02-22T07:38:02.409Z,12.08
2023-02-22T07:40:46.104Z,11.76
2023-02-22T07:43:31.629Z,10.85
2023-02-22T07:46:14.667Z,12.00
2023-02-22T07:48:59.203Z,11.95
2023-02-22T07:51:42.307Z,11.50
2023-02-22T07:54:25.702Z,12.01
2023-02-22T07:57:10.861Z,11.75
2023-02-22T07:59:53.968Z,13.60
2023-02-22T08:02:37.181Z,10.65
2023-02-22T08:05:23.622Z,10.96
2023-02-22T08:08:07.760Z,10.28
2023-02-22T08:10:52.086Z,10.46
2023-02-22T08:13:37.297Z,11.25
2023-02-22T08:16:20.649Z,13.97
2023-02-22T08:19:03.867Z,11.03
2023-02-22T08:21:48.367Z,10.09
2023-02-22T08:24:32.704Z,13.02
2023-02-22T08:27:15.850Z,11.43
2023-02-22T08:29:58.985Z,9.54
2023-02-22T08:32:42.253Z,9.11
2023-02-22T08:35:25.975Z,9.10
2023-02-22T08:38:18.372Z,9.85
2023-02-22T08:41:01.677Z,8.41
2023-02-22T08:43:44.840Z,7.88
2023-02-22T08:46:27.933Z,9.65
2023-02-22T08:49:10.970Z,9.34
2023-02-22T08:51:54.097Z,9.02
2023-02-22T08:54:38.771Z,10.44
2023-02-22T08:57:21.972Z,9.95
2023-02-22T09:00:06.448Z,8.90
2023-02-22T09:02:49.490Z,7.79
2023-02-22T09:05:33.180Z,7.91
2023-02-22T09:08:18.125Z,7.20
2023-02-22T09:11:02.923Z,8.26
2023-02-22T09:13:46.008Z,7.03
2023-02-22T09:16:36.678Z,6.55
2023-02-22T09:19:19.833Z,5.88
2023-02-22T09:22:03.220Z,5.80
2023-02-22T09:24:46.326Z,6.89
2023-02-22T09:27:30.876Z,6.17
2023-02-22T09:30:19.368Z,6.42
2023-02-22T09:33:04.430Z,6.87
2023-02-22T09:35:50.018Z,6.50
2023-02-22T09:38:38.544Z,6.75
2023-02-22T09:44:49.552Z,7.56
2023-02-22T09:47:41.105Z,7.20
2023-02-22T09:50:27.473Z,7.75
2023-02-22T09:53:29.689Z,10.03
2023-02-22T09:56:17.584Z,13.27
2023-02-22T09:59:05.118Z,15.74
2023-02-22T10:01:55.842Z,17.88
2023-02-22T10:04:44.606Z,19.03
2023-02-22T10:07:33.621Z,14.17
2023-02-22T10:10:20.408Z,11.25
2023-02-22T10:13:14.160Z,9.97
2023-02-22T10:16:05.391Z,8.39
2023-02-22T10:19:16.173Z,8.15
2023-02-22T10:22:31.279Z,7.68
2023-02-22T10:25:18.203Z,7.64
2023-02-22T10:28:07.504Z,7.92
2023-02-22T10:30:56.350Z,8.74
2023-02-22T10:33:46.267Z,8.10
2023-02-22T10:36:31.169Z,7.80
2023-02-22T10:39:22.703Z,6.93
2023-02-22T10:42:08.304Z,6.73
2023-02-22T10:44:51.656Z,7.53
2023-02-22T10:47:36.115Z,6.89
2023-02-22T10:50:21.746Z,6.26
2023-02-22T10:53:06.270Z,6.89
2023-02-22T10:56:19.344Z,6.35
2023-02-22T10:59:06.237Z,5.94
2023-02-22T11:01:50.102Z,6.65
2023-02-22T11:04:47.163Z,6.34
2023-02-22T11:07:32.370Z,6.27
2023-02-22T11:10:32.456Z,6.00
2023-02-22T11:13:19.716Z,6.38
2023-02-22T11:16:18.789Z,6.12
2023-02-22T11:19:03.274Z,5.54
2023-02-22T11:21:46.560Z,5.91
2023-02-22T11:24:43.559Z,5.29
2023-02-22T11:27:39.367Z,6.08
2023-02-22T11:30:29.530Z,5.46
2023-02-22T11:33:23.504Z,4.70
2023-02-22T11:36:10.475Z,5.63
2023-02-22T11:39:03.317Z,5.40
2023-02-22T11:41:46.586Z,6.31
2023-02-22T11:44:32.574Z,6.85
2023-02-22T11:47:15.575Z,7.37
2023-02-22T11:49:58.793Z,6.38
2023-02-22T11:52:47.404Z,8.62
2023-02-22T11:55:43.200Z,10.73
2023-02-22T11:58:40.984Z,12.19
2023-02-22T12:01:37.192Z,14.05
2023-02-22T12:04:54.173Z,16.19
2023-02-22T12:07:52.351Z,19.06
2023-02-22T12:10:56.078Z,19.66
2023-02-22T12:13:50.029Z,21.66
2023-02-22T12:16:51.484Z,22.96
2023-02-22T12:19:38.133Z,24.71
2023-02-22T12:22:28.015Z,24.97
2023-02-22T12:25:20.757Z,25.18
2023-02-22T12:28:24.197Z,25.80
2023-02-22T12:31:17.238Z,25.54
2023-02-22T12:34:09.902Z,26.43
2023-02-22T12:36:57.045Z,25.94
2023-02-22T12:39:58.641Z,27.20
2023-02-22T12:42:51.956Z,26.20
2023-02-22T12:45:41.884Z,26.46
2023-02-22T12:48:37.706Z,26.99
2023-02-22T12:51:32.424Z,26.90
2023-02-22T12:54:23.307Z,26.92
2023-02-22T12:57:13.052Z,27.19
2023-02-22T12:59:59.406Z,27.61
2023-02-22T13:02:47.054Z,27.75
2023-02-22T13:05:36.868Z,28.15
2023-02-22T13:08:31.457Z,28.06
2023-02-22T13:11:26.211Z,27.75
2023-02-22T13:14:23.955Z,27.61
2023-02-22T13:17:15.022Z,27.77
2023-02-22T13:20:02.519Z,27.61
2023-02-22T13:22:51.353Z,27.33
2023-02-22T13:25:45.034Z,27.20
2023-02-22T13:28:39.871Z,27.69
2023-02-22T13:31:45.546Z,27.47
2023-02-22T13:34:45.745Z,27.70
2023-02-22T13:37:57.117Z,27.76
2023-02-22T13:40:54.953Z,27.96
2023-02-22T13:44:15.224Z,28.23
2023-02-22T13:47:21.023Z,28.23
2023-02-22T13:50:26.783Z,28.92
2023-02-22T13:53:18.271Z,29.16
2023-02-22T13:56:06.026Z,29.74
2023-02-22T13:58:55.218Z,28.93
2023-02-22T14:01:47.558Z,29.19
2023-02-22T14:04:44.182Z,28.99
2023-02-22T14:08:04.284Z,29.56
2023-02-22T14:10:52.818Z,29.31
2023-02-22T14:14:17.896Z,28.79
2023-02-22T14:17:31.471Z,29.98
2023-02-22T14:20:32.863Z,30.44
2023-02-22T14:23:37.480Z,30.57
2023-02-22T14:26:29.040Z,30.44
2023-02-22T14:29:23.870Z,30.51
2023-02-22T14:32:10.765Z,29.59
2023-02-22T14:35:01.852Z,30.54
2023-02-22T14:37:50.708Z,29.56
2023-02-22T14:40:37.628Z,30.25
2023-02-22T14:43:24.861Z,29.89
2023-02-22T14:46:17.397Z,30.32
2023-02-22T14:49:06.425Z,31.04
2023-02-22T14:51:55.448Z,31.10
2023-02-22T14:54:48.665Z,31.34
2023-02-22T14:57:42.389Z,30.62
2023-02-22T15:00:38.819Z,30.89
2023-02-22T15:03:34.404Z,30.44
2023-02-22T15:06:23.424Z,31.16
2023-02-22T15:09:10.052Z,30.75
2023-02-22T15:11:55.253Z,31.00
2023-02-22T15:14:41.275Z,31.28
2023-02-22T15:17:26.383Z,31.17
2023-02-22T15:20:17.077Z,31.72
2023-02-22T15:23:01.220Z,30.88
2023-02-22T15:25:49.563Z,30.90
2023-02-22T15:28:32.878Z,30.35
2023-02-22T15:31:27.326Z,30.50
2023-02-22T15:34:24.649Z,32.01
2023-02-22T15:37:25.774Z,32.96
2023-02-22T15:40:15.945Z,32.85
2023-02-22T15:42:59.461Z,33.66
2023-02-22T15:45:43.299Z,33.90
2023-02-22T15:48:27.251Z,34.09
2023-02-22T15:51:15.417Z,34.50
2023-02-22T15:54:04.824Z,35.13
2023-02-22T15:56:55.611Z,35.51
2023-02-22T15:59:45.121Z,35.45
2023-02-22T16:02:35.870Z,35.56
2023-02-22T16:05:20.056Z,35.78
2023-02-22T16:08:04.390Z,36.65
2023-02-22T16:10:59.391Z,36.34
2023-02-22T16:13:43.952Z,37.30
2023-02-22T16:16:32.397Z,37.69
2023-02-22T16:19:28.082Z,37.42
2023-02-22T16:22:26.955Z,38.09
2023-02-22T16:25:33.311Z,37.65
2023-02-22T16:28:30.851Z,37.88
2023-02-22T16:31:14.003Z,38.29
2023-02-22T16:33:57.189Z,39.00
2023-02-22T16:36:42.876Z,39.25
2023-02-22T16:39:28.264Z,39.46
2023-02-22T16:42:13.761Z,39.62
2023-02-22T16:44:58.553Z,39.70
2023-02-22T16:47:41.655Z,39.81
2023-02-22T16:50:28.351Z,39.69
2023-02-22T16:53:12.195Z,39.86
2023-02-22T16:56:02.234Z,40.16
2023-02-22T16:58:46.433Z,40.46
2023-02-22T17:01:35.214Z,41.15
2023-02-22T17:04:22.176Z,40.65
2023-02-22T17:07:05.543Z,40.39
2023-02-22T17:09:48.746Z,40.96
2023-02-22T17:12:32.994Z,41.31
2023-02-22T17:15:24.166Z,41.04
2023-02-22T17:18:14.133Z,41.14
2023-02-22T17:20:57.418Z,41.60
2023-02-22T17:23:46.021Z,42.02
2023-02-22T17:26:29.249Z,41.93
2023-02-22T17:29:13.968Z,42.16
2023-02-22T17:31:57.768Z,42.57
2023-02-22T17:34:42.429Z,41.92
2023-02-22T17:37:25.756Z,42.38
2023-02-22T17:40:09.756Z,42.26
2023-02-22T17:42:55.294Z,43.30
2023-02-22T17:45:42.362Z,42.60
2023-02-22T17:48:25.854Z,42.67
2023-02-22T17:51:12.350Z,42.87
2023-02-22T17:53:55.743Z,43.00
2023-02-22T17:56:38.926Z,43.15
2023-02-22T17:59:23.505Z,42.76
2023-02-22T18:02:06.706Z,42.90
2023-02-22T18:04:50.420Z,43.95
2023-02-22T18:07:34.990Z,43.67
2023-02-22T18:10:20.811Z,43.29
2023-02-22T18:13:04.278Z,43.79
2023-02-22T18:15:48.754Z,43.90
2023-02-22T18:18:31.840Z,43.61
2023-02-22T18:21:16.309Z,43.81
2023-02-22T18:24:00.823Z,44.40
2023-02-22T18:26:44.133Z,44.31
2023-02-22T18:29:29.062Z,44.95
2023-02-22T18:32:13.470Z,44.77
2023-02-22T18:34:57.171Z,45.42
2023-02-22T18:37:41.041Z,45.84
2023-02-22T18:40:28.974Z,45.35
2023-02-22T18:43:14.049Z,45.40
2023-02-22T18:46:06.889Z,45.92
2023-02-22T18:48:53.296Z,45.82
2023-02-22T18:51:36.323Z,46.20
2023-02-22T18:54:19.813Z,45.92
2023-02-22T18:57:05.675Z,45.87
2023-02-22T18:59:48.967Z,46.04
2023-02-22T19:02:32.129Z,45.92
2023-02-22T19:05:17.467Z,45.84
2023-02-22T19:08:01.060Z,46.44
2023-02-22T19:10:44.780Z,46.60
2023-02-22T19:13:31.405Z,46.11
2023-02-22T19:16:16.344Z,46.61
2023-02-22T19:19:01.181Z,46.17
2023-02-22T19:21:44.284Z,46.30
2023-02-22T19:24:27.394Z,46.53
2023-02-22T19:27:10.496Z,46.48
2023-02-22T19:29:55.045Z,45.75
2023-02-22T19:32:40.900Z,46.73
2023-02-22T19:35:32.931Z,47.25
2023-02-22T19:38:16.214Z,47.23
2023-02-22T19:40:59.226Z,48.08
2023-02-22T19:43:42.384Z,48.50
2023-02-22T19:46:27.052Z,49.28
2023-02-22T19:49:10.116Z,49.04
2023-02-22T19:51:58.160Z,49.31
2023-02-22T19:54:41.468Z,49.59
2023-02-22T19:57:25.727Z,49.78
2023-02-22T20:00:13.868Z,50.24
2023-02-22T20:03:05.936Z,50.58
2023-02-22T20:05:49.114Z,50.85
2023-02-22T20:08:33.610Z,51.59
2023-02-22T20:11:17.285Z,51.97
2023-02-22T20:14:02.677Z,51.91
2023-02-22T20:16:46.102Z,52.60
2023-02-22T20:19:30.968Z,53.15
2023-02-22T20:22:14.099Z,53.66
2023-02-22T20:24:57.414Z,53.18
2023-02-22T20:27:41.139Z,53.36
2023-02-22T20:30:24.496Z,53.23
2023-02-22T20:33:10.429Z,54.15
2023-02-22T20:35:54.953Z,53.67
2023-02-22T20:38:38.370Z,54.09
2023-02-22T20:41:26.466Z,54.29
2023-02-22T20:44:11.408Z,54.36
2023-02-22T20:46:55.633Z,54.18
2023-02-22T20:49:38.784Z,54.93
2023-02-22T20:52:23.587Z,54.96
2023-02-22T20:55:11.817Z,54.87
2023-02-22T20:57:55.677Z,54.91
2023-02-22T21:00:39.362Z,55.16
2023-02-22T21:03:22.694Z,55.48
2023-02-22T21:06:07.943Z,55.26
2023-02-22T21:08:54.931Z,55.25
2023-02-22T21:11:39.021Z,55.32
2023-02-22T21:14:24.338Z,55.93
2023-02-22T21:17:10.595Z,55.65
2023-02-22T21:19:54.015Z,55.48
2023-02-22T21:22:39.056Z,56.23
2023-02-22T21:25:24.952Z,55.85
2023-02-22T21:28:08.071Z,55.92
2023-02-22T21:30:51.488Z,56.23
2023-02-22T21:33:35.130Z,56.66
2023-02-22T21:36:18.240Z,56.45
2023-02-22T21:39:08.987Z,56.50
2023-02-22T21:41:55.101Z,56.46
2023-02-22T21:44:40.746Z,56.85
2023-02-22T21:47:23.916Z,56.74
2023-02-22T21:50:10.333Z,56.73
2023-02-22T21:52:53.492Z,57.25
2023-02-22T21:55:38.184Z,56.70
2023-02-22T21:58:22.750Z,56.99
2023-02-22T22:01:07.256Z,57.55
2023-02-22T22:03:51.012Z,57.72
2023-02-22T22:06:35.735Z,57.62
2023-02-22T22:09:19.750Z,58.11
2023-02-22T22:12:05.267Z,58.14
2023-02-22T22:14:50.974Z,58.21
2023-02-22T22:17:34.041Z,58.15
2023-02-22T22:20:18.156Z,58.03
2023-02-22T22:23:01.201Z,58.11
2023-02-22T22:25:46.025Z,58.01
2023-02-22T22:28:29.371Z,58.03
2023-02-22T22:31:15.439Z,57.90
2023-02-22T22:34:00.241Z,58.19
2023-02-22T22:36:43.656Z,57.52
2023-02-22T22:39:27.321Z,58.20
2023-02-22T22:42:10.862Z,57.69
2023-02-22T22:44:54.177Z,57.77
2023-02-22T22:47:38.990Z,57.84
2023-02-22T22:50:26.545Z,57.74
2023-02-22T22:53:09.892Z,58.32
2023-02-22T22:55:53.081Z,58.21
2023-02-22T22:58:37.057Z,57.65
2023-02-22T23:01:27.018Z,57.78
2023-02-22T23:04:13.769Z,58.43
2023-02-22T23:06:57.776Z,58.42
2023-02-22T23:09:42.596Z,58.52
2023-02-22T23:12:31.596Z,58.76
2023-02-22T23:15:15.359Z,57.98
2023-02-22T23:17:59.372Z,58.85
2023-02-22T23:20:43.884Z,59.67
2023-02-22T23:23:27.897Z,59.29
2023-02-22T23:26:18.022Z,59.07
2023-02-22T23:29:01.199Z,58.68
2023-02-22T23:31:44.373Z,58.61
2023-02-22T23:34:29.058Z,59.02
2023-02-22T23:37:14.242Z,59.56
2023-02-22T23:40:00.253Z,59.78
2023-02-22T23:42:43.704Z,60.08
2023-02-22T23:45:28.092Z,59.74
2023-02-22T23:48:12.657Z,59.47
2023-02-22T23:50:59.150Z,59.97
2023-02-22T23:53:46.218Z,61.40
2023-02-22T23:56:30.965Z,60.54
2023-02-22T23:59:15.795Z,61.01
